sensor_id;sensor_type;location;lat;lon;timestamp;P1;durP1;ratioP1;P2;durP2;ratioP2
53907;SDS011;40469;47.998;7.794;2022-08-20T00:00:17;15.60;;;8.88;;
53907;SDS011;40469;47.998;7.794;2022-08-20T00:02:46;15.18;;;8.43;;
53907;SDS011;40469;47.998;7.794;2022-08-20T00:05:15;10.93;;;8.10;;
53907;SDS011;40469;47.998;7.794;2022-08-20T00:07:44;11.50;;;8.70;;
53907;SDS011;40469;47.998;7.794;2022-08-20T00:10:09;15.25;;;8.90;;
53907;SDS011;40469;47.998;7.794;2022-08-20T00:12:35;11.27;;;8.35;;
53907;SDS011;40469;47.998;7.794;2022-08-20T00:15:02;12.00;;;8.23;;
53907;SDS011;40469;47.998;7.794;2022-08-20T00:17:29;11.15;;;7.95;;
53907;SDS011;40469;47.998;7.794;2022-08-20T00:20:05;13.20;;;8.30;;
53907;SDS011;40469;47.998;7.794;2022-08-20T00:22:33;11.23;;;7.97;;
53907;SDS011;40469;47.998;7.794;2022-08-20T00:24:58;13.93;;;9.73;;
53907;SDS011;40469;47.998;7.794;2022-08-20T00:27:24;11.27;;;8.10;;
53907;SDS011;40469;47.998;7.794;2022-08-20T00:29:49;17.50;;;8.32;;
53907;SDS011;40469;47.998;7.794;2022-08-20T00:32:14;13.23;;;8.27;;
53907;SDS011;40469;47.998;7.794;2022-08-20T00:34:40;12.75;;;8.32;;
53907;SDS011;40469;47.998;7.794;2022-08-20T00:37:06;12.57;;;8.80;;
53907;SDS011;40469;47.998;7.794;2022-08-20T00:39:32;12.70;;;7.80;;
53907;SDS011;40469;47.998;7.794;2022-08-20T00:41:57;11.70;;;8.13;;
53907;SDS011;40469;47.998;7.794;2022-08-20T00:44:23;11.35;;;7.85;;
53907;SDS011;40469;47.998;7.794;2022-08-20T00:46:49;10.43;;;7.72;;
53907;SDS011;40469;47.998;7.794;2022-08-20T00:49:16;12.57;;;8.45;;
53907;SDS011;40469;47.998;7.794;2022-08-20T00:51:50;11.13;;;7.85;;
53907;SDS011;40469;47.998;7.794;2022-08-20T00:54:36;12.75;;;8.48;;
53907;SDS011;40469;47.998;7.794;2022-08-20T00:57:16;12.55;;;7.13;;
53907;SDS011;40469;47.998;7.794;2022-08-20T00:59:55;12.60;;;7.40;;
53907;SDS011;40469;47.998;7.794;2022-08-20T01:02:22;10.25;;;7.18;;
53907;SDS011;40469;47.998;7.794;2022-08-20T01:04:51;10.23;;;7.57;;
53907;SDS011;40469;47.998;7.794;2022-08-20T01:07:21;12.10;;;7.55;;
53907;SDS011;40469;47.998;7.794;2022-08-20T01:09:56;14.90;;;8.23;;
53907;SDS011;40469;47.998;7.794;2022-08-20T01:12:22;11.43;;;7.35;;
53907;SDS011;40469;47.998;7.794;2022-08-20T01:14:49;9.55;;;7.10;;
53907;SDS011;40469;47.998;7.794;2022-08-20T01:17:16;10.65;;;7.80;;
53907;SDS011;40469;47.998;7.794;2022-08-20T01:20:08;13.20;;;7.63;;
53907;SDS011;40469;47.998;7.794;2022-08-20T01:22:39;13.07;;;8.13;;
53907;SDS011;40469;47.998;7.794;2022-08-20T01:25:27;12.63;;;8.52;;
53907;SDS011;40469;47.998;7.794;2022-08-20T01:28:03;12.68;;;7.55;;
53907;SDS011;40469;47.998;7.794;2022-08-20T01:30:29;9.80;;;7.07;;
53907;SDS011;40469;47.998;7.794;2022-08-20T01:32:56;13.30;;;7.43;;
53907;SDS011;40469;47.998;7.794;2022-08-20T01:35:22;10.32;;;7.50;;
53907;SDS011;40469;47.998;7.794;2022-08-20T01:37:49;11.10;;;6.75;;
53907;SDS011;40469;47.998;7.794;2022-08-20T01:40:16;11.95;;;7.30;;
53907;SDS011;40469;47.998;7.794;2022-08-20T01:43:12;11.13;;;7.32;;
53907;SDS011;40469;47.998;7.794;2022-08-20T01:45:38;11.68;;;7.00;;
53907;SDS011;40469;47.998;7.794;2022-08-20T01:48:04;13.38;;;7.18;;
53907;SDS011;40469;47.998;7.794;2022-08-20T01:50:29;9.13;;;7.10;;
53907;SDS011;40469;47.998;7.794;2022-08-20T01:53:05;9.45;;;7.18;;
53907;SDS011;40469;47.998;7.794;2022-08-20T01:55:39;9.23;;;6.75;;
53907;SDS011;40469;47.998;7.794;2022-08-20T01:58:05;10.02;;;6.72;;
53907;SDS011;40469;47.998;7.794;2022-08-20T02:00:30;9.95;;;7.30;;
53907;SDS011;40469;47.998;7.794;2022-08-20T02:02:56;13.05;;;7.70;;
53907;SDS011;40469;47.998;7.794;2022-08-20T02:05:21;9.57;;;6.80;;
53907;SDS011;40469;47.998;7.794;2022-08-20T02:07:47;13.20;;;7.05;;
53907;SDS011;40469;47.998;7.794;2022-08-20T02:10:14;10.15;;;7.03;;
53907;SDS011;40469;47.998;7.794;2022-08-20T02:12:43;9.70;;;6.82;;
53907;SDS011;40469;47.998;7.794;2022-08-20T02:15:09;9.57;;;7.30;;
53907;SDS011;40469;47.998;7.794;2022-08-20T02:17:35;11.00;;;7.35;;
53907;SDS011;40469;47.998;7.794;2022-08-20T02:20:03;10.45;;;7.20;;
53907;SDS011;40469;47.998;7.794;2022-08-20T02:22:34;10.35;;;7.53;;
53907;SDS011;40469;47.998;7.794;2022-08-20T02:25:09;10.98;;;7.13;;
53907;SDS011;40469;47.998;7.794;2022-08-20T02:27:36;9.60;;;7.00;;
53907;SDS011;40469;47.998;7.794;2022-08-20T02:30:05;11.82;;;7.07;;
53907;SDS011;40469;47.998;7.794;2022-08-20T02:32:35;11.32;;;6.53;;
53907;SDS011;40469;47.998;7.794;2022-08-20T02:35:08;9.40;;;6.70;;
53907;SDS011;40469;47.998;7.794;2022-08-20T02:40:05;14.15;;;7.15;;
53907;SDS011;40469;47.998;7.794;2022-08-20T02:42:32;9.77;;;6.88;;
53907;SDS011;40469;47.998;7.794;2022-08-20T02:44:58;10.93;;;7.07;;
53907;SDS011;40469;47.998;7.794;2022-08-20T02:47:24;10.55;;;6.78;;
53907;SDS011;40469;47.998;7.794;2022-08-20T02:49:51;10.85;;;6.90;;
53907;SDS011;40469;47.998;7.794;2022-08-20T02:52:18;13.10;;;7.05;;
53907;SDS011;40469;47.998;7.794;2022-08-20T02:54:44;9.82;;;5.75;;
53907;SDS011;40469;47.998;7.794;2022-08-20T02:57:12;9.95;;;6.15;;
53907;SDS011;40469;47.998;7.794;2022-08-20T02:59:38;11.32;;;6.47;;
53907;SDS011;40469;47.998;7.794;2022-08-20T03:02:04;10.30;;;6.28;;
53907;SDS011;40469;47.998;7.794;2022-08-20T03:04:29;9.85;;;6.38;;
53907;SDS011;40469;47.998;7.794;2022-08-20T03:06:55;8.82;;;6.88;;
53907;SDS011;40469;47.998;7.794;2022-08-20T03:09:21;9.80;;;6.13;;
53907;SDS011;40469;47.998;7.794;2022-08-20T03:11:47;8.70;;;5.68;;
53907;SDS011;40469;47.998;7.794;2022-08-20T03:14:12;9.45;;;5.95;;
53907;SDS011;40469;47.998;7.794;2022-08-20T03:16:38;8.25;;;5.65;;
53907;SDS011;40469;47.998;7.794;2022-08-20T03:19:03;9.02;;;5.80;;
53907;SDS011;40469;47.998;7.794;2022-08-20T03:21:28;9.80;;;5.82;;
53907;SDS011;40469;47.998;7.794;2022-08-20T03:23:54;9.80;;;6.03;;
53907;SDS011;40469;47.998;7.794;2022-08-20T03:26:19;8.35;;;6.20;;
53907;SDS011;40469;47.998;7.794;2022-08-20T03:28:45;8.45;;;6.30;;
53907;SDS011;40469;47.998;7.794;2022-08-20T03:31:10;9.82;;;5.95;;
53907;SDS011;40469;47.998;7.794;2022-08-20T03:33:36;9.32;;;6.40;;
53907;SDS011;40469;47.998;7.794;2022-08-20T03:36:03;9.43;;;6.60;;
53907;SDS011;40469;47.998;7.794;2022-08-20T03:38:29;8.35;;;6.00;;
53907;SDS011;40469;47.998;7.794;2022-08-20T03:40:55;10.80;;;6.63;;
53907;SDS011;40469;47.998;7.794;2022-08-20T03:43:20;15.70;;;7.43;;
53907;SDS011;40469;47.998;7.794;2022-08-20T03:45:46;11.88;;;6.43;;
53907;SDS011;40469;47.998;7.794;2022-08-20T03:48:13;9.50;;;6.63;;
53907;SDS011;40469;47.998;7.794;2022-08-20T03:50:41;10.00;;;7.25;;
53907;SDS011;40469;47.998;7.794;2022-08-20T03:53:08;13.75;;;7.32;;
53907;SDS011;40469;47.998;7.794;2022-08-20T03:55:35;15.85;;;8.90;;
53907;SDS011;40469;47.998;7.794;2022-08-20T03:58:02;11.88;;;7.57;;
53907;SDS011;40469;47.998;7.794;2022-08-20T04:00:34;11.00;;;7.22;;
53907;SDS011;40469;47.998;7.794;2022-08-20T04:03:02;22.10;;;9.95;;
53907;SDS011;40469;47.998;7.794;2022-08-20T04:05:29;13.18;;;8.35;;
53907;SDS011;40469;47.998;7.794;2022-08-20T04:07:55;12.13;;;7.70;;
53907;SDS011;40469;47.998;7.794;2022-08-20T04:10:22;14.25;;;8.60;;
53907;SDS011;40469;47.998;7.794;2022-08-20T04:12:49;14.50;;;7.47;;
53907;SDS011;40469;47.998;7.794;2022-08-20T04:15:15;9.48;;;6.93;;
53907;SDS011;40469;47.998;7.794;2022-08-20T04:17:43;9.00;;;6.93;;
53907;SDS011;40469;47.998;7.794;2022-08-20T04:20:12;10.15;;;7.07;;
53907;SDS011;40469;47.998;7.794;2022-08-20T04:22:39;11.75;;;7.95;;
53907;SDS011;40469;47.998;7.794;2022-08-20T04:25:05;12.52;;;7.80;;
53907;SDS011;40469;47.998;7.794;2022-08-20T04:27:35;11.80;;;8.07;;
53907;SDS011;40469;47.998;7.794;2022-08-20T04:30:01;11.90;;;7.55;;
53907;SDS011;40469;47.998;7.794;2022-08-20T04:32:28;13.50;;;8.38;;
53907;SDS011;40469;47.998;7.794;2022-08-20T04:34:54;12.57;;;7.50;;
53907;SDS011;40469;47.998;7.794;2022-08-20T04:37:20;13.98;;;6.80;;
53907;SDS011;40469;47.998;7.794;2022-08-20T04:39:46;10.27;;;6.90;;
53907;SDS011;40469;47.998;7.794;2022-08-20T04:42:33;10.48;;;6.68;;
53907;SDS011;40469;47.998;7.794;2022-08-20T04:45:00;8.95;;;6.68;;
53907;SDS011;40469;47.998;7.794;2022-08-20T04:47:25;12.30;;;7.25;;
53907;SDS011;40469;47.998;7.794;2022-08-20T04:49:50;9.27;;;6.32;;
53907;SDS011;40469;47.998;7.794;2022-08-20T04:52:16;12.80;;;7.30;;
53907;SDS011;40469;47.998;7.794;2022-08-20T04:54:41;11.23;;;6.47;;
53907;SDS011;40469;47.998;7.794;2022-08-20T04:57:07;9.77;;;6.57;;
53907;SDS011;40469;47.998;7.794;2022-08-20T04:59:33;10.07;;;6.65;;
53907;SDS011;40469;47.998;7.794;2022-08-20T05:01:58;9.63;;;5.80;;
53907;SDS011;40469;47.998;7.794;2022-08-20T05:04:23;8.02;;;6.50;;
53907;SDS011;40469;47.998;7.794;2022-08-20T05:06:51;10.05;;;6.20;;
53907;SDS011;40469;47.998;7.794;2022-08-20T05:09:16;12.75;;;6.25;;
53907;SDS011;40469;47.998;7.794;2022-08-20T05:11:42;9.35;;;5.78;;
53907;SDS011;40469;47.998;7.794;2022-08-20T05:14:07;8.23;;;6.40;;
53907;SDS011;40469;47.998;7.794;2022-08-20T05:16:33;8.35;;;5.78;;
53907;SDS011;40469;47.998;7.794;2022-08-20T05:19:03;7.97;;;6.18;;
53907;SDS011;40469;47.998;7.794;2022-08-20T05:21:29;9.45;;;5.68;;
53907;SDS011;40469;47.998;7.794;2022-08-20T05:23:54;9.95;;;5.88;;
53907;SDS011;40469;47.998;7.794;2022-08-20T05:26:20;9.02;;;5.18;;
53907;SDS011;40469;47.998;7.794;2022-08-20T05:28:45;7.65;;;5.35;;
53907;SDS011;40469;47.998;7.794;2022-08-20T05:31:10;8.43;;;5.00;;
53907;SDS011;40469;47.998;7.794;2022-08-20T05:33:36;8.48;;;5.22;;
53907;SDS011;40469;47.998;7.794;2022-08-20T05:36:03;7.80;;;4.95;;
53907;SDS011;40469;47.998;7.794;2022-08-20T05:38:30;8.63;;;5.40;;
53907;SDS011;40469;47.998;7.794;2022-08-20T05:40:56;7.22;;;4.78;;
53907;SDS011;40469;47.998;7.794;2022-08-20T05:43:21;8.63;;;5.13;;
53907;SDS011;40469;47.998;7.794;2022-08-20T05:45:47;9.25;;;5.22;;
53907;SDS011;40469;47.998;7.794;2022-08-20T05:48:18;9.70;;;4.75;;
53907;SDS011;40469;47.998;7.794;2022-08-20T05:50:46;8.65;;;4.68;;
53907;SDS011;40469;47.998;7.794;2022-08-20T05:53:13;7.55;;;4.45;;
53907;SDS011;40469;47.998;7.794;2022-08-20T05:55:40;8.40;;;4.30;;
53907;SDS011;40469;47.998;7.794;2022-08-20T05:58:07;7.95;;;4.95;;
53907;SDS011;40469;47.998;7.794;2022-08-20T06:00:38;8.00;;;4.75;;
53907;SDS011;40469;47.998;7.794;2022-08-20T06:03:04;9.65;;;4.40;;
53907;SDS011;40469;47.998;7.794;2022-08-20T06:05:48;9.02;;;3.55;;
53907;SDS011;40469;47.998;7.794;2022-08-20T06:08:13;8.68;;;4.10;;
53907;SDS011;40469;47.998;7.794;2022-08-20T06:10:40;10.93;;;4.32;;
53907;SDS011;40469;47.998;7.794;2022-08-20T06:13:06;8.50;;;3.85;;
53907;SDS011;40469;47.998;7.794;2022-08-20T06:15:32;5.88;;;3.85;;
53907;SDS011;40469;47.998;7.794;2022-08-20T06:17:58;7.55;;;3.90;;
53907;SDS011;40469;47.998;7.794;2022-08-20T06:20:24;6.22;;;3.90;;
53907;SDS011;40469;47.998;7.794;2022-08-20T06:22:50;6.80;;;4.32;;
53907;SDS011;40469;47.998;7.794;2022-08-20T06:25:16;6.85;;;4.47;;
53907;SDS011;40469;47.998;7.794;2022-08-20T06:27:41;8.73;;;4.05;;
53907;SDS011;40469;47.998;7.794;2022-08-20T06:30:09;7.35;;;4.43;;
53907;SDS011;40469;47.998;7.794;2022-08-20T06:32:36;10.00;;;4.05;;
53907;SDS011;40469;47.998;7.794;2022-08-20T06:35:03;9.80;;;4.07;;
53907;SDS011;40469;47.998;7.794;2022-08-20T06:37:32;7.22;;;4.43;;
53907;SDS011;40469;47.998;7.794;2022-08-20T06:40:02;8.88;;;4.75;;
53907;SDS011;40469;47.998;7.794;2022-08-20T06:42:31;7.07;;;4.50;;
53907;SDS011;40469;47.998;7.794;2022-08-20T06:44:57;7.15;;;4.80;;
53907;SDS011;40469;47.998;7.794;2022-08-20T06:47:24;7.95;;;4.03;;
53907;SDS011;40469;47.998;7.794;2022-08-20T06:49:50;35.90;;;19.65;;
53907;SDS011;40469;47.998;7.794;2022-08-20T06:52:15;8.50;;;5.00;;
53907;SDS011;40469;47.998;7.794;2022-08-20T06:54:41;9.30;;;4.90;;
53907;SDS011;40469;47.998;7.794;2022-08-20T06:57:08;7.63;;;4.00;;
53907;SDS011;40469;47.998;7.794;2022-08-20T06:59:33;7.30;;;3.90;;
53907;SDS011;40469;47.998;7.794;2022-08-20T07:02:00;4.93;;;3.20;;
53907;SDS011;40469;47.998;7.794;2022-08-20T07:04:26;4.43;;;2.72;;
53907;SDS011;40469;47.998;7.794;2022-08-20T07:06:51;3.85;;;2.67;;
53907;SDS011;40469;47.998;7.794;2022-08-20T07:09:18;6.13;;;3.47;;
53907;SDS011;40469;47.998;7.794;2022-08-20T07:11:45;7.03;;;3.70;;
53907;SDS011;40469;47.998;7.794;2022-08-20T07:14:12;10.30;;;3.78;;
53907;SDS011;40469;47.998;7.794;2022-08-20T07:16:37;5.32;;;3.53;;
53907;SDS011;40469;47.998;7.794;2022-08-20T07:19:03;11.10;;;4.15;;
53907;SDS011;40469;47.998;7.794;2022-08-20T07:21:28;5.13;;;3.45;;
53907;SDS011;40469;47.998;7.794;2022-08-20T07:23:54;8.68;;;4.90;;
53907;SDS011;40469;47.998;7.794;2022-08-20T07:26:20;7.18;;;4.18;;
53907;SDS011;40469;47.998;7.794;2022-08-20T07:28:46;7.60;;;4.90;;
53907;SDS011;40469;47.998;7.794;2022-08-20T07:31:11;10.15;;;5.15;;
53907;SDS011;40469;47.998;7.794;2022-08-20T07:33:55;9.05;;;4.25;;
53907;SDS011;40469;47.998;7.794;2022-08-20T07:36:21;8.55;;;4.13;;
53907;SDS011;40469;47.998;7.794;2022-08-20T07:38:47;4.80;;;3.75;;
53907;SDS011;40469;47.998;7.794;2022-08-20T07:41:14;8.52;;;4.30;;
53907;SDS011;40469;47.998;7.794;2022-08-20T07:43:41;8.35;;;3.80;;
53907;SDS011;40469;47.998;7.794;2022-08-20T07:46:10;6.22;;;3.83;;
53907;SDS011;40469;47.998;7.794;2022-08-20T07:48:37;4.72;;;3.17;;
53907;SDS011;40469;47.998;7.794;2022-08-20T07:51:04;4.93;;;2.67;;
53907;SDS011;40469;47.998;7.794;2022-08-20T07:53:32;3.17;;;1.70;;
53907;SDS011;40469;47.998;7.794;2022-08-20T07:55:58;4.65;;;2.10;;
53907;SDS011;40469;47.998;7.794;2022-08-20T07:58:24;5.10;;;2.60;;
53907;SDS011;40469;47.998;7.794;2022-08-20T08:00:50;4.25;;;2.20;;
53907;SDS011;40469;47.998;7.794;2022-08-20T08:03:17;5.45;;;2.30;;
53907;SDS011;40469;47.998;7.794;2022-08-20T08:05:43;3.80;;;2.20;;
53907;SDS011;40469;47.998;7.794;2022-08-20T08:08:11;2.63;;;1.88;;
53907;SDS011;40469;47.998;7.794;2022-08-20T08:10:41;2.90;;;1.35;;
53907;SDS011;40469;47.998;7.794;2022-08-20T08:13:08;2.28;;;1.50;;
53907;SDS011;40469;47.998;7.794;2022-08-20T08:15:39;2.88;;;1.67;;
53907;SDS011;40469;47.998;7.794;2022-08-20T08:18:13;2.05;;;1.55;;
53907;SDS011;40469;47.998;7.794;2022-08-20T08:20:44;4.35;;;2.03;;
53907;SDS011;40469;47.998;7.794;2022-08-20T08:23:10;2.60;;;1.42;;
53907;SDS011;40469;47.998;7.794;2022-08-20T08:25:39;3.63;;;1.58;;
53907;SDS011;40469;47.998;7.794;2022-08-20T08:28:10;2.63;;;1.40;;
53907;SDS011;40469;47.998;7.794;2022-08-20T08:30:37;3.50;;;2.15;;
53907;SDS011;40469;47.998;7.794;2022-08-20T08:33:04;2.47;;;1.00;;
53907;SDS011;40469;47.998;7.794;2022-08-20T08:35:48;2.83;;;1.02;;
53907;SDS011;40469;47.998;7.794;2022-08-20T08:38:14;3.28;;;1.40;;
53907;SDS011;40469;47.998;7.794;2022-08-20T08:40:41;1.85;;;1.00;;
53907;SDS011;40469;47.998;7.794;2022-08-20T08:46:24;1.83;;;1.20;;
53907;SDS011;40469;47.998;7.794;2022-08-20T08:48:51;2.85;;;1.30;;
53907;SDS011;40469;47.998;7.794;2022-08-20T08:51:25;3.20;;;1.70;;
53907;SDS011;40469;47.998;7.794;2022-08-20T08:53:57;2.42;;;1.17;;
53907;SDS011;40469;47.998;7.794;2022-08-20T08:56:24;1.75;;;1.25;;
53907;SDS011;40469;47.998;7.794;2022-08-20T08:58:52;1.90;;;1.35;;
53907;SDS011;40469;47.998;7.794;2022-08-20T09:01:20;5.57;;;1.02;;
53907;SDS011;40469;47.998;7.794;2022-08-20T09:03:47;2.50;;;1.48;;
53907;SDS011;40469;47.998;7.794;2022-08-20T09:06:17;2.30;;;1.40;;
53907;SDS011;40469;47.998;7.794;2022-08-20T09:08:50;3.53;;;1.40;;
53907;SDS011;40469;47.998;7.794;2022-08-20T09:11:19;2.55;;;1.48;;
53907;SDS011;40469;47.998;7.794;2022-08-20T09:13:47;3.15;;;1.30;;
53907;SDS011;40469;47.998;7.794;2022-08-20T09:16:13;3.10;;;1.60;;
53907;SDS011;40469;47.998;7.794;2022-08-20T09:18:38;2.80;;;1.60;;
53907;SDS011;40469;47.998;7.794;2022-08-20T09:21:05;2.00;;;1.52;;
53907;SDS011;40469;47.998;7.794;2022-08-20T09:23:33;3.30;;;1.45;;
53907;SDS011;40469;47.998;7.794;2022-08-20T09:26:00;2.00;;;1.50;;
53907;SDS011;40469;47.998;7.794;2022-08-20T09:28:25;6.35;;;1.52;;
53907;SDS011;40469;47.998;7.794;2022-08-20T09:30:51;2.50;;;1.63;;
53907;SDS011;40469;47.998;7.794;2022-08-20T09:33:16;1.95;;;1.20;;
53907;SDS011;40469;47.998;7.794;2022-08-20T09:35:42;6.38;;;1.30;;
53907;SDS011;40469;47.998;7.794;2022-08-20T09:38:09;2.67;;;1.70;;
53907;SDS011;40469;47.998;7.794;2022-08-20T09:40:35;5.15;;;1.92;;
53907;SDS011;40469;47.998;7.794;2022-08-20T09:43:00;3.03;;;1.75;;
53907;SDS011;40469;47.998;7.794;2022-08-20T09:45:29;3.50;;;1.50;;
53907;SDS011;40469;47.998;7.794;2022-08-20T09:47:55;2.25;;;1.40;;
53907;SDS011;40469;47.998;7.794;2022-08-20T09:50:21;2.40;;;1.40;;
53907;SDS011;40469;47.998;7.794;2022-08-20T09:52:47;2.45;;;1.30;;
53907;SDS011;40469;47.998;7.794;2022-08-20T09:55:20;1.40;;;0.93;;
53907;SDS011;40469;47.998;7.794;2022-08-20T09:57:48;3.17;;;1.30;;
53907;SDS011;40469;47.998;7.794;2022-08-20T10:00:15;2.05;;;1.02;;
53907;SDS011;40469;47.998;7.794;2022-08-20T10:02:41;3.15;;;1.30;;
53907;SDS011;40469;47.998;7.794;2022-08-20T10:05:08;2.60;;;1.00;;
53907;SDS011;40469;47.998;7.794;2022-08-20T10:07:34;1.10;;;0.80;;
53907;SDS011;40469;47.998;7.794;2022-08-20T10:10:01;2.67;;;0.98;;
53907;SDS011;40469;47.998;7.794;2022-08-20T10:12:27;1.15;;;0.70;;
53907;SDS011;40469;47.998;7.794;2022-08-20T10:14:52;1.83;;;0.82;;
53907;SDS011;40469;47.998;7.794;2022-08-20T10:17:19;1.23;;;0.73;;
53907;SDS011;40469;47.998;7.794;2022-08-20T10:19:45;0.88;;;0.68;;
53907;SDS011;40469;47.998;7.794;2022-08-20T10:22:10;1.63;;;1.00;;
53907;SDS011;40469;47.998;7.794;2022-08-20T10:24:36;1.05;;;0.50;;
53907;SDS011;40469;47.998;7.794;2022-08-20T10:27:01;1.77;;;0.60;;
53907;SDS011;40469;47.998;7.794;2022-08-20T10:29:27;1.30;;;0.60;;
53907;SDS011;40469;47.998;7.794;2022-08-20T10:31:54;4.07;;;0.90;;
53907;SDS011;40469;47.998;7.794;2022-08-20T10:34:21;4.05;;;0.70;;
53907;SDS011;40469;47.998;7.794;2022-08-20T10:36:47;1.45;;;0.70;;
53907;SDS011;40469;47.998;7.794;2022-08-20T10:39:13;0.95;;;0.70;;
53907;SDS011;40469;47.998;7.794;2022-08-20T10:41:38;0.70;;;0.50;;
53907;SDS011;40469;47.998;7.794;2022-08-20T10:44:05;1.90;;;0.82;;
53907;SDS011;40469;47.998;7.794;2022-08-20T10:46:31;0.82;;;0.60;;
53907;SDS011;40469;47.998;7.794;2022-08-20T10:48:57;2.75;;;0.50;;
53907;SDS011;40469;47.998;7.794;2022-08-20T10:51:22;0.65;;;0.55;;
53907;SDS011;40469;47.998;7.794;2022-08-20T10:53:47;2.15;;;0.57;;
53907;SDS011;40469;47.998;7.794;2022-08-20T10:56:13;0.90;;;0.50;;
53907;SDS011;40469;47.998;7.794;2022-08-20T10:58:38;1.13;;;0.75;;
53907;SDS011;40469;47.998;7.794;2022-08-20T11:01:04;1.45;;;0.70;;
53907;SDS011;40469;47.998;7.794;2022-08-20T11:03:29;1.23;;;0.60;;
53907;SDS011;40469;47.998;7.794;2022-08-20T11:05:55;1.58;;;0.50;;
53907;SDS011;40469;47.998;7.794;2022-08-20T11:08:21;0.80;;;0.50;;
53907;SDS011;40469;47.998;7.794;2022-08-20T11:10:46;0.60;;;0.50;;
53907;SDS011;40469;47.998;7.794;2022-08-20T11:13:11;1.05;;;0.40;;
53907;SDS011;40469;47.998;7.794;2022-08-20T11:15:38;1.15;;;0.50;;
53907;SDS011;40469;47.998;7.794;2022-08-20T11:18:06;1.42;;;0.50;;
53907;SDS011;40469;47.998;7.794;2022-08-20T11:20:32;1.05;;;0.68;;
53907;SDS011;40469;47.998;7.794;2022-08-20T11:22:58;0.50;;;0.38;;
53907;SDS011;40469;47.998;7.794;2022-08-20T11:25:24;0.60;;;0.40;;
53907;SDS011;40469;47.998;7.794;2022-08-20T11:27:51;0.65;;;0.40;;
53907;SDS011;40469;47.998;7.794;2022-08-20T11:30:19;0.70;;;0.40;;
53907;SDS011;40469;47.998;7.794;2022-08-20T11:32:48;1.13;;;0.50;;
53907;SDS011;40469;47.998;7.794;2022-08-20T11:35:14;0.70;;;0.50;;
53907;SDS011;40469;47.998;7.794;2022-08-20T11:37:39;1.35;;;0.50;;
53907;SDS011;40469;47.998;7.794;2022-08-20T11:40:05;0.50;;;0.40;;
53907;SDS011;40469;47.998;7.794;2022-08-20T11:42:33;0.95;;;0.40;;
53907;SDS011;40469;47.998;7.794;2022-08-20T11:44:59;0.85;;;0.57;;
53907;SDS011;40469;47.998;7.794;2022-08-20T11:47:27;0.73;;;0.50;;
53907;SDS011;40469;47.998;7.794;2022-08-20T11:49:57;0.75;;;0.43;;
53907;SDS011;40469;47.998;7.794;2022-08-20T11:52:31;1.58;;;0.95;;
53907;SDS011;40469;47.998;7.794;2022-08-20T11:54:56;1.20;;;0.60;;
53907;SDS011;40469;47.998;7.794;2022-08-20T11:57:24;0.75;;;0.50;;
53907;SDS011;40469;47.998;7.794;2022-08-20T11:59:56;0.98;;;0.47;;
53907;SDS011;40469;47.998;7.794;2022-08-20T12:02:23;2.50;;;0.70;;
53907;SDS011;40469;47.998;7.794;2022-08-20T12:04:50;0.98;;;0.50;;
53907;SDS011;40469;47.998;7.794;2022-08-20T12:07:17;0.95;;;0.50;;
53907;SDS011;40469;47.998;7.794;2022-08-20T12:09:44;2.42;;;0.47;;
53907;SDS011;40469;47.998;7.794;2022-08-20T12:12:10;2.45;;;0.50;;
53907;SDS011;40469;47.998;7.794;2022-08-20T12:14:36;3.60;;;0.50;;
53907;SDS011;40469;47.998;7.794;2022-08-20T12:19:45;1.17;;;0.75;;
53907;SDS011;40469;47.998;7.794;2022-08-20T12:22:11;0.40;;;0.40;;
53907;SDS011;40469;47.998;7.794;2022-08-20T12:24:37;0.52;;;0.40;;
53907;SDS011;40469;47.998;7.794;2022-08-20T12:27:09;0.95;;;0.60;;
53907;SDS011;40469;47.998;7.794;2022-08-20T12:29:37;0.70;;;0.40;;
53907;SDS011;40469;47.998;7.794;2022-08-20T12:32:04;0.85;;;0.40;;
53907;SDS011;40469;47.998;7.794;2022-08-20T12:34:34;1.05;;;0.70;;
53907;SDS011;40469;47.998;7.794;2022-08-20T12:37:06;0.60;;;0.47;;
53907;SDS011;40469;47.998;7.794;2022-08-20T12:39:37;1.17;;;0.50;;
53907;SDS011;40469;47.998;7.794;2022-08-20T12:42:04;0.93;;;0.30;;
53907;SDS011;40469;47.998;7.794;2022-08-20T12:44:30;0.90;;;0.40;;
53907;SDS011;40469;47.998;7.794;2022-08-20T12:47:10;1.88;;;0.30;;
53907;SDS011;40469;47.998;7.794;2022-08-20T12:49:38;0.65;;;0.50;;
53907;SDS011;40469;47.998;7.794;2022-08-20T12:52:05;1.05;;;0.38;;
53907;SDS011;40469;47.998;7.794;2022-08-20T12:54:31;0.82;;;0.32;;
53907;SDS011;40469;47.998;7.794;2022-08-20T12:56:57;0.70;;;0.45;;
53907;SDS011;40469;47.998;7.794;2022-08-20T12:59:23;0.57;;;0.32;;
53907;SDS011;40469;47.998;7.794;2022-08-20T13:01:49;0.90;;;0.50;;
53907;SDS011;40469;47.998;7.794;2022-08-20T13:04:16;0.50;;;0.40;;
53907;SDS011;40469;47.998;7.794;2022-08-20T13:06:42;1.30;;;0.50;;
53907;SDS011;40469;47.998;7.794;2022-08-20T13:09:07;4.90;;;0.50;;
53907;SDS011;40469;47.998;7.794;2022-08-20T13:11:33;1.15;;;0.50;;
53907;SDS011;40469;47.998;7.794;2022-08-20T13:13:59;0.65;;;0.50;;
53907;SDS011;40469;47.998;7.794;2022-08-20T13:16:24;0.50;;;0.43;;
53907;SDS011;40469;47.998;7.794;2022-08-20T13:18:49;2.58;;;0.40;;
53907;SDS011;40469;47.998;7.794;2022-08-20T13:21:15;1.25;;;0.50;;
53907;SDS011;40469;47.998;7.794;2022-08-20T13:23:40;2.25;;;0.50;;
53907;SDS011;40469;47.998;7.794;2022-08-20T13:26:06;5.07;;;0.70;;
53907;SDS011;40469;47.998;7.794;2022-08-20T13:28:31;1.23;;;0.40;;
53907;SDS011;40469;47.998;7.794;2022-08-20T13:30:56;0.73;;;0.50;;
53907;SDS011;40469;47.998;7.794;2022-08-20T13:33:22;1.10;;;0.40;;
53907;SDS011;40469;47.998;7.794;2022-08-20T13:35:50;1.00;;;0.40;;
53907;SDS011;40469;47.998;7.794;2022-08-20T13:38:16;2.05;;;0.40;;
53907;SDS011;40469;47.998;7.794;2022-08-20T13:40:41;1.08;;;0.47;;
53907;SDS011;40469;47.998;7.794;2022-08-20T13:43:07;3.90;;;0.50;;
53907;SDS011;40469;47.998;7.794;2022-08-20T13:45:32;1.35;;;0.40;;
53907;SDS011;40469;47.998;7.794;2022-08-20T13:47:58;1.27;;;0.45;;
53907;SDS011;40469;47.998;7.794;2022-08-20T13:50:23;1.63;;;0.70;;
53907;SDS011;40469;47.998;7.794;2022-08-20T13:52:49;0.95;;;0.30;;
53907;SDS011;40469;47.998;7.794;2022-08-20T13:55:16;1.20;;;0.30;;
53907;SDS011;40469;47.998;7.794;2022-08-20T13:57:45;1.10;;;0.43;;
53907;SDS011;40469;47.998;7.794;2022-08-20T14:00:12;2.00;;;0.30;;
53907;SDS011;40469;47.998;7.794;2022-08-20T14:02:41;0.85;;;0.40;;
53907;SDS011;40469;47.998;7.794;2022-08-20T14:05:07;0.75;;;0.40;;
53907;SDS011;40469;47.998;7.794;2022-08-20T14:07:34;0.63;;;0.40;;
53907;SDS011;40469;47.998;7.794;2022-08-20T14:10:01;1.25;;;0.50;;
53907;SDS011;40469;47.998;7.794;2022-08-20T14:12:29;0.88;;;0.52;;
53907;SDS011;40469;47.998;7.794;2022-08-20T14:14:55;1.58;;;0.60;;
53907;SDS011;40469;47.998;7.794;2022-08-20T14:17:24;0.95;;;0.55;;
53907;SDS011;40469;47.998;7.794;2022-08-20T14:19:59;1.45;;;0.50;;
53907;SDS011;40469;47.998;7.794;2022-08-20T14:22:28;1.23;;;0.50;;
53907;SDS011;40469;47.998;7.794;2022-08-20T14:24:53;0.63;;;0.40;;
53907;SDS011;40469;47.998;7.794;2022-08-20T14:27:20;0.93;;;0.40;;
53907;SDS011;40469;47.998;7.794;2022-08-20T14:29:48;0.70;;;0.40;;
53907;SDS011;40469;47.998;7.794;2022-08-20T14:32:14;1.38;;;0.68;;
53907;SDS011;40469;47.998;7.794;2022-08-20T14:34:40;1.45;;;0.60;;
53907;SDS011;40469;47.998;7.794;2022-08-20T14:37:16;1.08;;;0.50;;
53907;SDS011;40469;47.998;7.794;2022-08-20T14:39:44;0.65;;;0.45;;
53907;SDS011;40469;47.998;7.794;2022-08-20T14:42:11;0.82;;;0.50;;
53907;SDS011;40469;47.998;7.794;2022-08-20T14:44:38;1.02;;;0.50;;
53907;SDS011;40469;47.998;7.794;2022-08-20T14:49:36;3.33;;;1.27;;
53907;SDS011;40469;47.998;7.794;2022-08-20T14:52:02;3.35;;;1.40;;
53907;SDS011;40469;47.998;7.794;2022-08-20T14:54:28;1.73;;;1.00;;